Time;durP1;ratioP1;P1;durP2;ratioP2;P2;SDS_P1;SDS_P2;PMS_P1;PMS_P2;Temp;Humidity;BMP_temperature;BMP_pressure;BME280_temperature;BME280_humidity;BME280_pressure;Samples;Min_cycle;Max_cycle;Signal;HPM_P1;HPM_P2
2021/04/25 00:01:31;;;;;;;1.42;0.98;;;6.00;99.90;;;;;;5044547;28;20469;-74
2021/04/25 00:03:56;;;;;;;3.08;1.30;;;6.00;99.90;;;;;;5045976;28;20045;-71
2021/04/25 00:06:22;;;;;;;2.58;1.30;;;6.10;99.90;;;;;;5045825;28;20034;-71
2021/04/25 00:08:47;;;;;;;3.50;1.10;;;6.20;99.90;;;;;;5045256;28;20049;-72
2021/04/25 00:11:13;;;;;;;2.80;1.08;;;6.10;99.90;;;;;;5045517;28;20445;-72
2021/04/25 00:13:39;;;;;;;1.70;1.38;;;6.10;99.90;;;;;;5043933;28;20030;-73
2021/04/25 00:16:05;;;;;;;10.60;1.40;;;6.20;99.90;;;;;;5045501;28;20034;-72
2021/04/25 00:18:34;;;;;;;3.33;1.23;;;6.20;99.90;;;;;;5045622;28;20059;-71
2021/04/25 00:21:00;;;;;;;3.78;0.88;;;6.10;99.90;;;;;;5045468;28;20048;-71
2021/04/25 00:23:25;;;;;;;3.50;1.15;;;6.20;99.90;;;;;;5045104;28;20057;-71
2021/04/25 00:25:51;;;;;;;0.95;0.68;;;6.20;99.90;;;;;;5045137;28;20093;-71
2021/04/25 00:28:17;;;;;;;2.80;0.88;;;6.20;99.90;;;;;;5045196;28;20048;-72
2021/04/25 00:30:43;;;;;;;6.60;1.00;;;6.30;99.90;;;;;;5043905;28;20030;-71
2021/04/25 00:33:08;;;;;;;2.05;0.77;;;6.30;99.90;;;;;;5044986;28;20028;-71
2021/04/25 00:35:35;;;;;;;2.50;0.45;;;6.30;99.90;;;;;;5044964;28;20037;-71
2021/04/25 00:38:02;;;;;;;1.08;0.50;;;6.40;99.90;;;;;;5044988;28;20032;-72
2021/04/25 00:40:28;;;;;;;5.85;0.82;;;6.40;99.90;;;;;;5043984;28;20056;-72
2021/04/25 00:42:53;;;;;;;2.40;0.55;;;6.40;99.90;;;;;;5044734;28;20037;-72
2021/04/25 00:45:19;;;;;;;2.65;1.00;;;6.30;99.90;;;;;;5044919;28;20033;-72
2021/04/25 00:47:48;;;;;;;0.30;0.30;;;6.40;99.90;;;;;;5043614;28;20034;-71
2021/04/25 00:50:17;;;;;;;1.75;0.73;;;6.40;99.90;;;;;;5044701;28;20025;-73
2021/04/25 00:52:45;;;;;;;3.03;1.13;;;6.40;99.90;;;;;;5044823;28;20029;-72
2021/04/25 00:55:13;;;;;;;5.40;1.40;;;6.40;99.90;;;;;;5044879;28;20037;-70
2021/04/25 00:57:40;;;;;;;3.25;0.70;;;6.40;99.90;;;;;;5044726;28;20025;-72
2021/04/25 01:00:07;;;;;;;5.35;1.25;;;6.40;99.90;;;;;;5044704;28;20048;-74
2021/04/25 01:02:33;;;;;;;2.28;0.93;;;6.40;99.90;;;;;;5044818;28;20044;-70
2021/04/25 01:05:01;;;;;;;1.52;0.57;;;6.40;99.90;;;;;;5043434;28;20030;-71
2021/04/25 01:07:26;;;;;;;3.00;0.88;;;6.40;99.90;;;;;;5044764;28;20136;-71
2021/04/25 01:09:52;;;;;;;4.03;0.85;;;6.50;99.90;;;;;;5044743;28;20033;-72
2021/04/25 01:12:18;;;;;;;11.65;1.10;;;6.50;99.90;;;;;;5044682;28;20492;-72
2021/04/25 01:14:43;;;;;;;1.85;0.90;;;6.50;99.90;;;;;;5044446;28;20379;-73
2021/04/25 01:17:09;;;;;;;3.85;1.15;;;6.50;99.90;;;;;;5044604;28;20034;-71
2021/04/25 01:19:36;;;;;;;2.28;0.77;;;6.50;99.90;;;;;;5044638;28;20049;-70
2021/04/25 01:22:01;;;;;;;3.97;0.77;;;6.50;99.90;;;;;;5044419;28;20114;-72
2021/04/25 01:24:27;;;;;;;1.33;0.88;;;6.50;99.90;;;;;;5044509;28;20524;-71
2021/04/25 01:26:52;;;;;;;4.68;1.15;;;6.40;99.90;;;;;;5044519;28;20021;-72
2021/04/25 01:29:18;;;;;;;0.68;0.65;;;6.40;99.90;;;;;;5043249;28;20109;-71
2021/04/25 01:31:44;;;;;;;1.65;0.98;;;6.40;99.90;;;;;;5044489;28;20029;-72
2021/04/25 01:34:10;;;;;;;0.60;0.35;;;6.60;99.90;;;;;;5044410;28;20052;-71
2021/04/25 01:36:36;;;;;;;2.72;0.75;;;6.40;99.90;;;;;;5044481;28;20033;-73
2021/04/25 01:39:05;;;;;;;2.88;0.65;;;6.40;99.90;;;;;;5044351;28;20030;-72
2021/04/25 01:41:31;;;;;;;3.80;1.23;;;6.40;99.90;;;;;;5044464;28;20107;-73
2021/04/25 01:43:56;;;;;;;7.32;0.90;;;6.30;99.90;;;;;;5044803;28;20450;-72
2021/04/25 01:46:22;;;;;;;2.30;1.40;;;6.30;99.90;;;;;;5042971;28;20418;-73
2021/04/25 01:48:47;;;;;;;1.20;0.65;;;6.30;99.90;;;;;;5044074;28;20037;-72
2021/04/25 01:51:13;;;;;;;1.10;0.57;;;6.30;99.90;;;;;;5044381;28;20037;-72
2021/04/25 01:53:39;;;;;;;1.08;0.88;;;6.30;99.90;;;;;;5044139;28;20466;-71
2021/04/25 01:56:05;;;;;;;4.38;1.27;;;6.30;99.90;;;;;;5044280;28;20061;-73
2021/04/25 01:58:30;;;;;;;0.95;0.52;;;6.20;99.90;;;;;;5044373;28;20034;-72
2021/04/25 02:00:56;;;;;;;1.70;1.13;;;6.30;99.90;;;;;;5044197;28;20040;-71
2021/04/25 02:03:25;;;;;;;10.35;1.05;;;6.20;99.90;;;;;;5044182;28;20030;-72
2021/04/25 02:05:51;;;;;;;3.40;0.77;;;6.20;99.90;;;;;;5044207;28;20056;-71
2021/04/25 02:08:17;;;;;;;1.73;0.95;;;6.30;99.90;;;;;;5043758;28;20116;-72
2021/04/25 02:10:43;;;;;;;8.32;0.85;;;6.30;99.90;;;;;;5044006;28;20472;-72
2021/04/25 02:13:10;;;;;;;6.47;1.30;;;6.30;99.90;;;;;;5044834;28;20022;-73
2021/04/25 02:15:37;;;;;;;2.33;0.85;;;6.30;99.90;;;;;;5047634;28;20025;-74
2021/04/25 02:18:03;;;;;;;1.70;0.77;;;6.30;99.90;;;;;;5047885;28;20029;-71
2021/04/25 02:20:30;;;;;;;5.38;0.60;;;6.30;99.90;;;;;;5047700;28;20029;-73
2021/04/25 02:22:56;;;;;;;2.53;0.80;;;6.30;99.90;;;;;;5047422;28;20068;-71
2021/04/25 02:25:23;;;;;;;5.53;0.77;;;6.30;99.90;;;;;;5047434;28;20037;-72
2021/04/25 02:27:49;;;;;;;4.03;1.00;;;6.40;99.90;;;;;;5047429;28;20113;-72
2021/04/25 02:30:24;;;;;;;1.05;0.80;;;6.40;99.90;;;;;;5047417;28;20029;-72
2021/04/25 02:32:51;;;;;;;3.13;0.60;;;6.40;99.90;;;;;;5047283;28;20028;-71
2021/04/25 02:35:18;;;;;;;5.30;0.63;;;6.40;99.90;;;;;;5047503;28;20079;-72
2021/04/25 02:37:43;;;;;;;1.40;0.60;;;6.40;99.90;;;;;;5047053;28;20438;-71
2021/04/25 02:40:12;;;;;;;6.05;1.08;;;6.40;99.90;;;;;;5047326;28;20026;-72
2021/04/25 02:42:38;;;;;;;1.52;0.43;;;6.40;99.90;;;;;;5047175;28;20038;-72
2021/04/25 02:45:04;;;;;;;3.10;0.65;;;6.40;99.90;;;;;;5047146;28;20032;-73
2021/04/25 02:47:30;;;;;;;3.33;0.75;;;6.30;99.90;;;;;;5047266;28;20033;-71
2021/04/25 02:49:56;;;;;;;2.15;0.73;;;6.40;99.90;;;;;;5046996;28;20049;-69
2021/04/25 02:52:25;;;;;;;9.68;0.70;;;6.30;99.90;;;;;;5046884;28;20049;-71
2021/04/25 02:54:52;;;;;;;7.20;1.27;;;6.30;99.90;;;;;;5046729;28;20014;-71
2021/04/25 02:57:18;;;;;;;1.00;0.55;;;6.40;99.90;;;;;;5045588;28;20028;-71
2021/04/25 02:59:43;;;;;;;2.92;1.63;;;6.30;99.90;;;;;;5046827;28;20022;-74
2021/04/25 03:02:09;;;;;;;3.40;1.15;;;6.30;99.90;;;;;;5046879;28;20029;-74
2021/04/25 03:04:35;;;;;;;6.70;1.20;;;6.30;99.90;;;;;;5046832;28;20033;-72
2021/04/25 03:07:02;;;;;;;4.03;1.50;;;6.30;99.90;;;;;;5046851;28;20081;-72
2021/04/25 03:09:28;;;;;;;1.27;0.60;;;6.30;99.90;;;;;;5046766;28;20436;-72
2021/04/25 03:11:55;;;;;;;1.38;0.80;;;6.30;99.90;;;;;;5046511;28;20371;-72
2021/04/25 03:14:20;;;;;;;2.60;0.73;;;6.50;99.90;;;;;;5046679;28;20036;-70
2021/04/25 03:16:46;;;;;;;1.05;0.65;;;6.30;99.90;;;;;;5046611;28;20033;-72
2021/04/25 03:19:12;;;;;;;3.90;1.20;;;6.20;99.90;;;;;;5045329;28;20029;-72
2021/04/25 03:21:38;;;;;;;0.82;0.40;;;6.30;99.90;;;;;;5046269;28;20053;-72
2021/04/25 03:24:04;;;;;;;3.38;0.70;;;6.40;99.90;;;;;;5045964;28;20037;-71
2021/04/25 03:26:30;;;;;;;4.15;1.00;;;6.40;99.90;;;;;;5045632;28;20052;-74
2021/04/25 03:28:56;;;;;;;5.15;1.08;;;6.50;99.90;;;;;;5046353;28;20037;-73
2021/04/25 03:31:22;;;;;;;7.85;0.95;;;6.30;99.90;;;;;;5045013;28;20394;-72
2021/04/25 03:33:47;;;;;;;2.78;0.95;;;6.40;99.90;;;;;;5046289;28;20455;-72
2021/04/25 03:36:13;;;;;;;3.38;1.05;;;6.30;99.90;;;;;;5045909;28;20081;-72
2021/04/25 03:38:38;;;;;;;2.13;0.85;;;6.40;99.90;;;;;;5046051;28;20025;-73
2021/04/25 03:41:04;;;;;;;3.90;0.70;;;6.40;99.90;;;;;;5046311;28;20029;-74
2021/04/25 03:43:30;;;;;;;4.68;1.63;;;6.40;99.90;;;;;;5046282;28;20040;-72
2021/04/25 03:45:55;;;;;;;1.27;0.95;;;6.50;99.90;;;;;;5046024;28;20077;-72
2021/04/25 03:48:22;;;;;;;2.70;0.88;;;6.30;99.90;;;;;;5045925;28;20049;-73
2021/04/25 03:50:47;;;;;;;2.42;0.90;;;6.40;99.90;;;;;;5045922;28;20029;-74
2021/04/25 03:53:13;;;;;;;3.80;0.88;;;6.40;99.90;;;;;;5045513;28;20489;-73
2021/04/25 03:55:39;;;;;;;4.43;0.43;;;6.20;99.90;;;;;;5044691;28;20489;-72
2021/04/25 03:58:05;;;;;;;5.85;1.10;;;6.20;99.90;;;;;;5045823;28;20033;-73
2021/04/25 04:00:32;;;;;;;2.10;0.80;;;6.20;99.90;;;;;;5046120;28;20082;-74
2021/04/25 04:02:58;;;;;;;6.80;0.85;;;6.20;99.90;;;;;;5045921;28;20037;-73
2021/04/25 04:05:23;;;;;;;3.35;1.30;;;6.20;99.90;;;;;;5045711;28;20037;-73
2021/04/25 04:07:49;;;;;;;2.35;0.60;;;6.30;99.90;;;;;;5045106;28;20049;-72
2021/04/25 04:10:15;;;;;;;2.53;1.27;;;6.20;99.90;;;;;;5045748;28;20104;-71
2021/04/25 04:12:41;;;;;;;1.33;0.73;;;6.20;99.90;;;;;;5044138;28;20093;-73
2021/04/25 04:15:08;;;;;;;0.52;0.52;;;6.20;99.90;;;;;;5045526;28;20025;-72
2021/04/25 04:17:34;;;;;;;1.80;0.75;;;6.20;99.90;;;;;;5045308;28;20026;-72
2021/04/25 04:19:59;;;;;;;2.97;0.82;;;6.20;99.90;;;;;;5044244;28;20028;-71
2021/04/25 04:22:25;;;;;;;0.88;0.50;;;6.30;99.90;;;;;;5045282;28;20041;-72
2021/04/25 04:24:50;;;;;;;9.48;1.05;;;6.30;99.90;;;;;;5045440;28;20040;-71
2021/04/25 04:27:16;;;;;;;0.22;0.22;;;6.20;99.90;;;;;;5045198;28;20108;-72
2021/04/25 04:29:42;;;;;;;1.23;0.85;;;6.30;99.90;;;;;;5045141;28;20037;-71
2021/04/25 04:32:07;;;;;;;2.67;0.55;;;6.20;99.90;;;;;;5045191;28;20025;-72
2021/04/25 04:34:33;;;;;;;1.42;0.75;;;6.20;99.90;;;;;;5045219;28;20092;-72
2021/04/25 04:36:59;;;;;;;0.75;0.52;;;6.20;99.90;;;;;;5043704;28;20816;-72
2021/04/25 04:39:25;;;;;;;2.35;0.47;;;6.20;99.90;;;;;;5045142;28;20068;-73
2021/04/25 04:41:50;;;;;;;1.65;0.68;;;6.20;99.90;;;;;;5045371;28;20029;-71
2021/04/25 04:44:17;;;;;;;0.77;0.57;;;6.30;99.90;;;;;;5044727;28;20490;-72
2021/04/25 04:46:43;;;;;;;2.78;1.38;;;6.30;99.90;;;;;;5043453;28;20038;-71
2021/04/25 04:49:09;;;;;;;1.00;0.65;;;6.30;99.90;;;;;;5045066;28;20039;-73
2021/04/25 04:51:35;;;;;;;2.92;0.65;;;6.30;99.90;;;;;;5045043;28;20045;-72
2021/04/25 04:54:00;;;;;;;0.55;0.20;;;6.40;99.90;;;;;;5044902;28;20025;-71
2021/04/25 04:56:26;;;;;;;1.65;0.68;;;6.40;99.90;;;;;;5044836;28;20030;-70
2021/04/25 04:58:52;;;;;;;8.30;1.08;;;6.40;99.90;;;;;;5044830;28;20038;-72
2021/04/25 05:01:18;;;;;;;0.22;0.22;;;6.30;99.90;;;;;;5044983;28;20030;-72
2021/04/25 05:03:44;;;;;;;7.18;0.55;;;6.40;99.90;;;;;;5044620;28;20026;-71
2021/04/25 05:06:09;;;;;;;1.85;0.95;;;6.40;99.90;;;;;;5044625;28;20049;-73
2021/04/25 05:08:35;;;;;;;4.80;0.75;;;6.40;99.90;;;;;;5044610;28;20072;-73
2021/04/25 05:11:01;;;;;;;1.15;0.50;;;6.40;99.90;;;;;;5044718;28;20036;-72
2021/04/25 05:13:27;;;;;;;1.35;0.90;;;6.40;99.90;;;;;;5046728;28;20505;-75
2021/04/25 05:15:52;;;;;;;1.85;0.52;;;6.40;99.90;;;;;;5054132;28;20033;-75
2021/04/25 05:18:18;;;;;;;1.88;0.52;;;6.40;99.90;;;;;;5044805;28;20026;-75
2021/04/25 05:20:44;;;;;;;2.10;0.75;;;6.40;99.90;;;;;;5044363;28;20057;-75
2021/04/25 05:23:10;;;;;;;3.88;0.80;;;6.40;99.90;;;;;;5044091;28;20411;-75
2021/04/25 05:25:36;;;;;;;1.60;0.43;;;6.40;99.90;;;;;;5044639;28;20142;-75
2021/04/25 05:28:02;;;;;;;2.75;0.65;;;6.40;99.90;;;;;;5057026;28;20069;-75
2021/04/25 05:30:28;;;;;;;2.30;0.63;;;6.40;99.90;;;;;;5045621;28;20022;-74
2021/04/25 05:32:53;;;;;;;4.60;1.05;;;6.50;99.90;;;;;;5044551;28;20068;-75
2021/04/25 05:35:19;;;;;;;9.80;1.00;;;6.50;99.90;;;;;;5042966;28;20120;-74
2021/04/25 05:37:45;;;;;;;2.00;0.63;;;6.50;99.90;;;;;;5044383;28;20022;-75
2021/04/25 05:40:12;;;;;;;2.05;0.68;;;6.50;99.90;;;;;;5042888;28;20026;-75
2021/04/25 05:42:39;;;;;;;4.47;1.40;;;6.60;99.90;;;;;;5042850;28;20565;-75
2021/04/25 05:45:06;;;;;;;4.75;0.57;;;6.60;99.90;;;;;;5044541;28;20029;-74
2021/04/25 05:47:33;;;;;;;8.50;0.98;;;6.70;99.90;;;;;;5044552;28;20045;-75
2021/04/25 05:49:59;;;;;;;4.18;0.77;;;6.80;99.90;;;;;;5047512;28;20116;-74
2021/04/25 05:52:25;;;;;;;6.80;0.60;;;6.80;99.90;;;;;;5048373;28;20514;-74
2021/04/25 05:54:50;;;;;;;1.45;0.73;;;6.80;99.90;;;;;;5048183;28;20089;-74
2021/04/25 05:57:16;;;;;;;0.95;0.30;;;6.90;99.90;;;;;;5052758;28;20026;-78
2021/04/25 05:59:41;;;;;;;1.85;0.65;;;7.00;99.90;;;;;;5066705;28;20076;-75
2021/04/25 06:02:07;;;;;;;1.50;0.43;;;7.10;99.90;;;;;;5063584;28;20040;-74
2021/04/25 06:04:32;;;;;;;1.00;0.40;;;7.10;99.90;;;;;;5048094;28;20102;-75
2021/04/25 06:06:59;;;;;;;1.17;0.50;;;7.30;99.90;;;;;;5048012;28;20033;-74
2021/04/25 06:09:26;;;;;;;2.72;1.00;;;7.30;99.90;;;;;;5047882;28;20587;-74
2021/04/25 06:11:52;;;;;;;3.92;0.70;;;7.40;99.90;;;;;;5047677;28;20041;-75
2021/04/25 06:14:18;;;;;;;0.70;0.25;;;7.50;99.90;;;;;;5052240;28;20030;-74
2021/04/25 06:16:43;;;;;;;0.70;0.43;;;7.60;99.90;;;;;;5067174;28;20021;-74
2021/04/25 06:19:09;;;;;;;1.20;0.52;;;7.70;99.90;;;;;;5067564;28;20039;-75
2021/04/25 06:21:36;;;;;;;2.30;0.70;;;7.70;99.90;;;;;;5067497;28;20032;-74
2021/04/25 06:24:03;;;;;;;1.42;0.68;;;7.80;99.90;;;;;;5067681;28;20029;-74
2021/04/25 06:26:29;;;;;;;2.33;0.85;;;7.80;99.90;;;;;;5067793;28;20978;-74
2021/04/25 06:28:54;;;;;;;4.65;0.93;;;7.70;99.90;;;;;;5067664;28;20064;-74
2021/04/25 06:31:20;;;;;;;0.80;0.40;;;7.70;99.90;;;;;;5065801;28;20036;-74
2021/04/25 06:33:46;;;;;;;1.73;0.85;;;7.70;99.90;;;;;;5067520;28;20032;-73
2021/04/25 06:36:13;;;;;;;2.47;0.95;;;7.60;99.90;;;;;;5067550;28;20033;-73
2021/04/25 06:38:39;;;;;;;0.77;0.32;;;7.60;99.90;;;;;;5067297;28;20024;-73
2021/04/25 06:41:05;;;;;;;3.30;0.80;;;7.70;99.90;;;;;;5067338;28;20036;-75
2021/04/25 06:43:33;;;;;;;5.80;0.88;;;7.80;99.90;;;;;;5065876;28;20123;-74
2021/04/25 06:45:59;;;;;;;2.45;0.75;;;7.80;99.90;;;;;;5067324;28;20036;-72
2021/04/25 06:48:25;;;;;;;0.88;0.40;;;7.70;99.90;;;;;;5067257;28;20037;-73
2021/04/25 06:50:51;;;;;;;0.38;0.35;;;7.70;99.90;;;;;;5067307;28;20091;-74
2021/04/25 06:53:16;;;;;;;1.33;0.45;;;7.90;99.90;;;;;;5065671;28;20031;-73
2021/04/25 06:55:43;;;;;;;1.83;0.65;;;8.00;99.90;;;;;;5066946;28;20064;-75
2021/04/25 06:58:09;;;;;;;13.77;1.33;;;8.00;99.90;;;;;;5067029;28;20024;-74
2021/04/25 07:00:35;;;;;;;1.02;0.52;;;8.10;99.90;;;;;;5065628;28;20480;-76
2021/04/25 07:03:00;;;;;;;2.15;0.60;;;8.30;99.90;;;;;;5067008;28;20048;-75
2021/04/25 07:05:26;;;;;;;0.85;0.45;;;8.50;99.90;;;;;;5067088;28;20044;-74
2021/04/25 07:07:52;;;;;;;1.00;0.50;;;8.70;99.90;;;;;;5066591;28;20120;-75
2021/04/25 07:10:18;;;;;;;0.75;0.50;;;8.90;99.90;;;;;;5066647;28;20093;-73
2021/04/25 07:12:44;;;;;;;1.00;0.55;;;8.90;99.90;;;;;;5066710;28;20024;-73
2021/04/25 07:15:10;;;;;;;5.50;1.00;;;9.00;99.90;;;;;;5066630;28;20052;-74
2021/04/25 07:17:37;;;;;;;2.45;0.63;;;9.00;99.90;;;;;;5066923;28;20477;-74
2021/04/25 07:20:05;;;;;;;3.35;1.25;;;8.90;99.90;;;;;;5065112;28;20028;-75
2021/04/25 07:22:30;;;;;;;1.50;0.70;;;8.90;99.90;;;;;;5066440;28;20045;-74
2021/04/25 07:24:56;;;;;;;3.15;1.10;;;9.00;99.90;;;;;;5066453;28;20109;-74
2021/04/25 07:27:22;;;;;;;8.23;1.33;;;9.20;99.90;;;;;;5066780;28;20037;-73
2021/04/25 07:29:48;;;;;;;2.13;0.93;;;9.20;99.90;;;;;;5066207;28;20041;-74
2021/04/25 07:32:14;;;;;;;1.27;0.60;;;9.30;99.90;;;;;;5066363;28;20017;-75
2021/04/25 07:34:41;;;;;;;2.05;0.63;;;9.50;99.90;;;;;;5066407;28;20039;-73
2021/04/25 07:37:07;;;;;;;8.80;1.05;;;9.60;99.90;;;;;;5066059;28;20024;-76
2021/04/25 07:39:33;;;;;;;0.70;0.65;;;9.70;99.90;;;;;;5066491;28;20363;-75
2021/04/25 07:42:00;;;;;;;1.90;0.90;;;9.70;99.90;;;;;;5058293;28;20037;-74
2021/04/25 07:44:26;;;;;;;3.70;0.55;;;9.80;99.90;;;;;;5055654;28;20456;-74
2021/04/25 07:46:52;;;;;;;3.03;0.80;;;9.90;99.90;;;;;;5066252;28;20566;-73
2021/04/25 07:49:17;;;;;;;1.05;0.50;;;9.90;99.90;;;;;;5057305;28;20075;-74
2021/04/25 07:51:43;;;;;;;2.58;0.63;;;10.00;99.90;;;;;;5049666;28;20032;-74
2021/04/25 07:54:09;;;;;;;1.63;0.77;;;10.00;99.90;;;;;;5044784;28;20022;-74
2021/04/25 07:56:35;;;;;;;2.70;0.70;;;10.20;99.90;;;;;;5045912;28;20026;-74
2021/04/25 07:59:01;;;;;;;0.90;0.70;;;10.30;99.90;;;;;;5045989;28;20080;-75
2021/04/25 08:01:27;;;;;;;4.00;1.23;;;10.50;99.90;;;;;;5044898;28;20056;-74
2021/04/25 08:03:53;;;;;;;4.55;1.05;;;10.80;99.90;;;;;;5045910;28;20032;-72
2021/04/25 08:06:19;;;;;;;1.70;0.82;;;10.90;99.90;;;;;;5044536;28;20032;-73
2021/04/25 08:08:45;;;;;;;3.15;1.38;;;11.00;99.90;;;;;;5045355;28;20093;-74
2021/04/25 08:11:11;;;;;;;3.20;0.95;;;11.10;99.90;;;;;;5044834;28;20154;-73
2021/04/25 08:13:36;;;;;;;1.42;0.60;;;11.10;99.90;;;;;;5045639;28;20033;-74
2021/04/25 08:16:03;;;;;;;1.45;1.00;;;11.20;99.90;;;;;;5044347;28;20030;-72
2021/04/25 08:18:29;;;;;;;2.05;1.05;;;11.40;99.90;;;;;;5045793;28;20026;-73
2021/04/25 08:20:55;;;;;;;1.35;0.73;;;11.60;99.90;;;;;;5045336;28;20025;-74
2021/04/25 08:23:21;;;;;;;3.22;1.27;;;11.60;99.90;;;;;;5043997;28;20083;-73
2021/04/25 08:25:46;;;;;;;2.90;0.75;;;11.30;99.90;;;;;;5045368;28;20104;-74
2021/04/25 08:28:12;;;;;;;6.72;1.42;;;11.00;99.90;;;;;;5047654;28;20029;-73
2021/04/25 08:30:38;;;;;;;7.05;1.50;;;10.90;99.90;;;;;;5047000;28;20029;-74
2021/04/25 08:33:05;;;;;;;2.40;1.00;;;10.60;99.90;;;;;;5045631;28;20029;-73
2021/04/25 08:35:32;;;;;;;2.20;0.85;;;10.50;99.90;;;;;;5045787;28;20072;-75
2021/04/25 08:37:57;;;;;;;8.00;0.80;;;10.40;99.90;;;;;;5045503;28;20109;-73
2021/04/25 08:40:23;;;;;;;2.75;0.95;;;10.50;99.90;;;;;;5045132;28;20032;-73
2021/04/25 08:42:49;;;;;;;2.63;0.80;;;11.00;99.90;;;;;;5043962;28;20561;-74
2021/04/25 08:45:15;;;;;;;0.57;0.57;;;11.50;99.90;;;;;;5045163;28;20100;-74
2021/04/25 08:47:50;;;;;;;1.48;0.60;;;11.80;99.90;;;;;;5045240;28;20081;-73
2021/04/25 08:50:16;;;;;;;6.70;0.90;;;12.20;99.90;;;;;;5043106;28;20544;-73
2021/04/25 08:52:44;;;;;;;0.75;0.55;;;12.60;99.90;;;;;;5043600;28;20030;-74
2021/04/25 08:55:13;;;;;;;2.97;0.70;;;13.00;99.90;;;;;;5045266;28;20032;-74
2021/04/25 08:57:39;;;;;;;1.20;0.82;;;13.30;99.90;;;;;;5043074;28;20029;-74
2021/04/25 09:00:07;;;;;;;3.63;0.90;;;13.30;99.90;;;;;;5042640;28;20032;-74
2021/04/25 09:02:33;;;;;;;3.35;0.95;;;13.10;99.00;;;;;;5043348;28;20037;-74
2021/04/25 09:04:59;;;;;;;3.80;0.80;;;13.10;99.90;;;;;;5044769;28;20402;-74
2021/04/25 09:07:24;;;;;;;4.53;0.57;;;13.10;99.90;;;;;;5044413;28;20029;-74
2021/04/25 09:09:55;;;;;;;2.10;0.90;;;13.00;99.90;;;;;;5044674;28;20040;-74
2021/04/25 09:12:44;;;;;;;0.95;0.57;;;12.70;99.90;;;;;;5043567;28;20350;-74
2021/04/25 09:15:12;;;;;;;1.23;0.65;;;12.40;99.60;;;;;;5044724;28;20021;-74
2021/04/25 09:17:59;;;;;;;5.47;1.02;;;12.10;99.00;;;;;;5044839;28;20018;-75
2021/04/25 09:20:44;;;;;;;1.85;0.85;;;11.90;99.00;;;;;;5045109;28;20033;-75
2021/04/25 09:23:27;;;;;;;0.73;0.45;;;11.80;98.70;;;;;;5047282;28;20049;-74
2021/04/25 09:25:59;;;;;;;1.48;0.90;;;12.00;99.90;;;;;;5054867;28;20080;-75
2021/04/25 09:28:25;;;;;;;3.92;0.75;;;12.40;99.20;;;;;;5065747;28;20036;-74
2021/04/25 09:31:07;;;;;;;0.70;0.38;;;12.60;98.80;;;;;;5054288;28;20044;-73
2021/04/25 09:33:51;;;;;;;0.82;0.45;;;12.80;98.60;;;;;;5055484;28;20029;-74
2021/04/25 09:36:19;;;;;;;;;;;12.80;98.40;;;;;;5059496;28;20539;-73
2021/04/25 09:38:44;;;;;;;2.47;0.75;;;13.00;96.50;;;;;;5053944;28;19979;-75
2021/04/25 09:41:31;;;;;;;1.35;0.65;;;13.00;96.50;;;;;;5052754;28;20032;-74
2021/04/25 09:43:57;;;;;;;1.17;0.80;;;12.70;94.60;;;;;;5054713;28;20028;-74
2021/04/25 09:46:24;;;;;;;1.75;0.55;;;12.40;96.10;;;;;;5057542;28;20021;-75
2021/04/25 09:48:50;;;;;;;1.55;0.77;;;12.10;94.90;;;;;;5050360;28;20064;-75
2021/04/25 09:51:17;;;;;;;1.00;0.57;;;12.00;95.50;;;;;;5065889;28;20104;-75
2021/04/25 09:53:59;;;;;;;1.55;0.65;;;12.10;97.00;;;;;;5066743;28;20071;-72
2021/04/25 09:56:39;;;;;;;1.30;0.70;;;12.70;94.00;;;;;;5056242;28;20366;-74
2021/04/25 09:59:09;;;;;;;0.80;0.60;;;13.30;95.20;;;;;;5055034;28;20033;-72
2021/04/25 10:01:40;;;;;;;0.65;0.35;;;13.90;92.80;;;;;;5067746;28;20445;-75
2021/04/25 10:04:25;;;;;;;1.23;0.50;;;14.30;93.20;;;;;;5049295;28;20037;-75
2021/04/25 10:06:53;;;;;;;1.00;0.52;;;14.30;90.90;;;;;;5048213;28;20029;-74
2021/04/25 10:09:20;;;;;;;1.55;0.70;;;14.10;92.80;;;;;;5048245;28;20045;-75
2021/04/25 10:11:50;;;;;;;9.15;0.77;;;13.90;92.30;;;;;;5052021;28;20386;-74
2021/04/25 10:14:16;;;;;;;2.72;0.75;;;13.60;92.00;;;;;;5059607;28;20025;-74
2021/04/25 10:16:43;;;;;;;1.00;0.52;;;13.30;91.50;;;;;;5047382;28;20035;-75
2021/04/25 10:19:13;;;;;;;5.03;0.65;;;13.10;91.30;;;;;;5048254;28;20022;-75
2021/04/25 10:21:39;;;;;;;0.65;0.43;;;12.90;91.50;;;;;;5048312;28;20344;-75
2021/04/25 10:24:07;;;;;;;4.22;0.80;;;13.30;92.50;;;;;;5047804;28;20045;-75
2021/04/25 10:27:12;;;;;;;1.73;0.70;;;13.70;92.00;;;;;;5048230;28;20057;-76
2021/04/25 10:29:43;;;;;;;0.73;0.70;;;14.00;90.40;;;;;;5048380;28;20067;-76
2021/04/25 10:32:11;;;;;;;0.40;0.30;;;13.90;91.50;;;;;;5061655;28;20037;-76
2021/04/25 10:34:37;;;;;;;1.10;0.50;;;14.20;91.90;;;;;;5047060;28;20040;-75
2021/04/25 10:37:06;;;;;;;1.92;0.68;;;14.50;91.40;;;;;;5047971;28;20038;-77
2021/04/25 10:39:37;;;;;;;4.97;0.60;;;14.70;90.00;;;;;;5046603;28;20097;-81
2021/04/25 10:42:25;;;;;;;0.30;0.30;;;15.10;85.60;;;;;;5048191;28;20037;-77
2021/04/25 10:45:02;;;;;;;2.28;0.70;;;15.00;88.20;;;;;;5046232;28;20446;-73
2021/04/25 10:47:35;;;;;;;0.73;0.50;;;14.60;87.00;;;;;;5045809;28;20033;-76
2021/04/25 10:50:42;;;;;;;0.70;0.40;;;14.40;88.40;;;;;;5047554;28;20191;-77
2021/04/25 10:53:26;;;;;;;1.02;0.43;;;14.00;86.10;;;;;;5047389;28;20065;-78
2021/04/25 10:56:11;;;;;;;1.48;0.50;;;13.60;87.20;;;;;;5046273;28;20025;-75
2021/04/25 10:58:37;;;;;;;1.15;0.50;;;13.30;89.20;;;;;;5046768;28;20021;-76
2021/04/25 11:01:03;;;;;;;0.75;0.50;;;13.20;90.60;;;;;;5046955;28;20026;-76
2021/04/25 11:03:37;;;;;;;1.95;0.68;;;13.40;89.40;;;;;;5045760;28;20052;-77
2021/04/25 11:06:04;;;;;;;1.17;0.30;;;14.00;90.20;;;;;;5047954;28;20029;-78
2021/04/25 11:08:29;;;;;;;0.85;0.57;;;14.60;87.40;;;;;;5046324;28;20038;-76
2021/04/25 11:11:21;;;;;;;2.95;0.50;;;15.20;90.20;;;;;;5045703;28;20060;-73
2021/04/25 11:13:47;;;;;;;0.90;0.50;;;15.60;86.90;;;;;;5045789;28;20042;-74
2021/04/25 11:16:18;;;;;;;0.32;0.22;;;15.90;86.70;;;;;;5046386;28;20041;-75
2021/04/25 11:19:10;;;;;;;0.38;0.35;;;15.60;82.20;;;;;;5047158;28;20025;-74
2021/04/25 11:21:40;;;;;;;2.97;0.30;;;15.20;83.00;;;;;;5047250;28;20528;-74
2021/04/25 11:24:09;;;;;;;1.75;0.73;;;15.30;85.60;;;;;;5045477;28;20520;-73
2021/04/25 11:26:41;;;;;;;0.60;0.32;;;15.80;85.30;;;;;;5045824;28;20030;-78
2021/04/25 11:29:14;;;;;;;1.38;0.85;;;16.30;82.00;;;;;;5046375;28;20041;-77
2021/04/25 11:31:49;;;;;;;0.70;0.40;;;16.90;81.70;;;;;;5045165;28;20029;-76
2021/04/25 11:34:33;;;;;;;0.22;0.22;;;17.30;82.00;;;;;;5046969;28;20061;-76
2021/04/25 11:37:20;;;;;;;0.22;0.17;;;17.60;77.20;;;;;;5046734;28;20041;-75
2021/04/25 11:39:46;;;;;;;0.68;0.40;;;17.80;74.30;;;;;;5046594;28;20034;-76
2021/04/25 11:42:26;;;;;;;0.80;0.17;;;18.10;77.40;;;;;;5046666;28;20124;-75
2021/04/25 11:44:52;;;;;;;0.35;0.30;;;18.50;70.30;;;;;;5046528;28;20030;-72
2021/04/25 11:47:19;;;;;;;0.90;0.25;;;18.40;69.20;;;;;;5045925;28;20043;-74
2021/04/25 11:49:52;;;;;;;0.63;0.35;;;18.10;69.50;;;;;;5046293;28;20041;-73
2021/04/25 11:52:28;;;;;;;0.77;0.25;;;18.00;68.40;;;;;;5046585;28;20516;-75
2021/04/25 11:54:57;;;;;;;1.88;0.43;;;17.70;69.70;;;;;;5045571;28;20037;-74
2021/04/25 11:57:24;;;;;;;0.50;0.30;;;17.30;70.90;;;;;;5046759;28;20060;-77
2021/04/25 11:59:59;;;;;;;0.30;0.20;;;17.50;73.70;;;;;;5046305;28;20025;-73
2021/04/25 12:02:31;;;;;;;0.60;0.35;;;17.70;69.50;;;;;;5046148;28;20112;-75
2021/04/25 12:04:59;;;;;;;1.10;0.28;;;17.50;67.70;;;;;;5044853;28;20534;-73
2021/04/25 12:07:43;;;;;;;2.63;0.35;;;17.00;69.00;;;;;;5046520;28;20058;-75
2021/04/25 12:10:09;;;;;;;2.78;0.57;;;16.50;68.30;;;;;;5045958;28;20037;-75
2021/04/25 12:12:35;;;;;;;2.05;0.38;;;16.60;70.30;;;;;;5044782;28;20036;-74
2021/04/25 12:15:04;;;;;;;1.05;0.40;;;17.00;68.10;;;;;;5045891;28;20025;-75
2021/04/25 12:17:30;;;;;;;1.75;0.40;;;17.10;67.50;;;;;;5045855;28;20038;-73
2021/04/25 12:20:01;;;;;;;2.08;0.80;;;17.10;65.20;;;;;;5044387;28;20030;-72
2021/04/25 12:22:28;;;;;;;0.85;0.38;;;16.80;66.70;;;;;;5045256;28;20045;-73
2021/04/25 12:24:58;;;;;;;0.10;0.10;;;16.60;65.40;;;;;;5045944;28;20026;-73
2021/04/25 12:27:23;;;;;;;0.45;0.30;;;16.30;67.40;;;;;;5045601;28;20027;-74
2021/04/25 12:29:49;;;;;;;0.52;0.38;;;16.20;67.20;;;;;;5044206;28;20057;-73
2021/04/25 12:32:19;;;;;;;1.25;0.47;;;16.00;64.30;;;;;;5044165;28;20057;-74
2021/04/25 12:34:59;;;;;;;0.75;0.30;;;16.00;66.80;;;;;;5044333;28;20117;-73
2021/04/25 12:37:42;;;;;;;4.75;0.73;;;16.50;66.20;;;;;;5045574;28;20120;-77
2021/04/25 12:40:37;;;;;;;1.50;0.68;;;17.00;62.80;;;;;;5045790;28;20545;-74
2021/04/25 12:43:05;;;;;;;;;;;17.50;60.90;;;;;;5045349;28;20041;-74
2021/04/25 12:45:31;;;;;;;1.75;1.20;;;17.80;59.80;;;;;;5042605;28;20373;-74
2021/04/25 12:47:57;;;;;;;1.65;0.80;;;18.30;65.10;;;;;;5042841;28;20029;-75
2021/04/25 12:50:23;;;;;;;0.10;0.10;;;18.80;62.80;;;;;;5043006;28;20090;-75
2021/04/25 12:52:48;;;;;;;1.35;0.43;;;19.20;60.50;;;;;;5043619;28;20053;-76
2021/04/25 12:55:40;;;;;;;0.65;0.30;;;19.20;61.60;;;;;;5045407;28;20057;-74
2021/04/25 12:58:07;;;;;;;0.43;0.25;;;19.50;61.20;;;;;;5043748;28;20049;-75